createdAt,value
2019-01-12T00:01:19.466Z,20.88
2019-01-12T00:03:48.535Z,23.18
2019-01-12T00:06:17.587Z,16.02
2019-01-12T00:08:46.883Z,21.82
2019-01-12T00:11:15.823Z,23.00
2019-01-12T00:13:44.623Z,21.52
2019-01-12T00:16:13.716Z,20.57
2019-01-12T00:18:42.883Z,20.62
2019-01-12T00:21:11.849Z,24.70
2019-01-12T00:23:40.707Z,26.40
2019-01-12T00:26:09.972Z,26.62
2019-01-12T00:28:38.985Z,13.55
2019-01-12T00:31:07.881Z,20.68
2019-01-12T00:33:36.823Z,16.60
2019-01-12T00:36:05.794Z,16.62
2019-01-12T00:38:34.638Z,20.97
2019-01-12T00:41:03.687Z,17.85
2019-01-12T00:43:32.645Z,13.13
2019-01-12T00:46:01.588Z,13.65
2019-01-12T00:48:30.674Z,17.00
2019-01-12T00:50:59.892Z,19.57
2019-01-12T00:53:28.659Z,20.70
2019-01-12T00:55:57.673Z,21.27
2019-01-12T00:58:26.645Z,14.33
2019-01-12T01:00:55.642Z,14.58
2019-01-12T01:03:24.662Z,16.48
2019-01-12T01:05:53.850Z,14.98
2019-01-12T01:08:22.852Z,12.35
2019-01-12T01:10:51.590Z,12.43
2019-01-12T01:13:20.601Z,16.23
2019-01-12T01:15:49.611Z,15.58
2019-01-12T01:18:18.737Z,18.10
2019-01-12T01:20:47.633Z,16.52
2019-01-12T01:23:16.687Z,16.37
2019-01-12T01:25:45.635Z,16.45
2019-01-12T01:28:14.935Z,16.75
2019-01-12T01:30:44.008Z,17.17
2019-01-12T01:33:13.250Z,14.60
2019-01-12T01:35:42.198Z,13.08
2019-01-12T01:38:11.618Z,16.82
2019-01-12T01:40:40.547Z,17.40
2019-01-12T01:43:09.515Z,14.38
2019-01-12T01:45:38.356Z,11.65
2019-01-12T01:48:07.274Z,14.07
2019-01-12T01:50:36.348Z,17.42
2019-01-12T01:53:05.464Z,14.35
2019-01-12T01:55:34.324Z,16.30
2019-01-12T01:58:03.375Z,13.05
2019-01-12T02:00:32.358Z,13.85
2019-01-12T02:03:01.660Z,14.47
2019-01-12T02:05:30.714Z,13.88
2019-01-12T02:07:59.790Z,15.03
2019-01-12T02:10:28.753Z,21.02
2019-01-12T02:12:57.774Z,19.50
2019-01-12T02:15:26.705Z,18.00
2019-01-12T02:17:56.015Z,18.92
2019-01-12T02:20:24.781Z,21.40
2019-01-12T02:22:56.465Z,20.97
2019-01-12T02:25:25.724Z,21.33
2019-01-12T02:27:54.586Z,21.37
2019-01-12T02:30:24.908Z,15.60
2019-01-12T02:32:54.596Z,11.70
2019-01-12T02:35:23.697Z,14.68
2019-01-12T02:37:53.108Z,21.33
2019-01-12T02:40:22.175Z,11.85
2019-01-12T02:42:50.985Z,12.50
2019-01-12T02:45:20.097Z,16.17
2019-01-12T02:47:48.860Z,11.33
2019-01-12T02:50:17.774Z,13.93
2019-01-12T02:52:46.776Z,16.15
2019-01-12T02:55:15.712Z,17.50
2019-01-12T02:57:44.782Z,19.32
2019-01-12T03:00:18.411Z,19.30
2019-01-12T03:02:47.559Z,19.82
2019-01-12T03:05:16.513Z,10.25
2019-01-12T03:07:45.805Z,16.55
2019-01-12T03:10:16.483Z,15.75
2019-01-12T03:12:45.358Z,12.55
2019-01-12T03:15:16.736Z,13.65
2019-01-12T03:17:45.651Z,22.90
2019-01-12T03:20:16.263Z,20.57
2019-01-12T03:22:45.210Z,19.07
2019-01-12T03:25:18.467Z,17.50
2019-01-12T03:27:45.050Z,17.85
2019-01-12T03:30:16.708Z,19.87
2019-01-12T03:32:45.961Z,18.67
2019-01-12T03:35:15.046Z,15.85
2019-01-12T03:37:43.797Z,13.70
2019-01-12T03:40:15.533Z,9.68
2019-01-12T03:42:44.338Z,14.60
2019-01-12T03:45:14.339Z,16.02
2019-01-12T03:47:43.379Z,17.92
2019-01-12T03:50:13.496Z,16.27
2019-01-12T03:52:42.486Z,12.10
2019-01-12T03:55:13.217Z,13.03
2019-01-12T03:57:42.341Z,10.82
2019-01-12T04:00:14.782Z,17.40
2019-01-12T04:02:43.786Z,20.23
2019-01-12T04:05:14.969Z,18.48
2019-01-12T04:07:43.911Z,18.35
2019-01-12T04:10:13.443Z,17.42
2019-01-12T04:12:42.358Z,17.10
2019-01-12T04:15:11.775Z,17.35
2019-01-12T04:17:40.747Z,9.80
2019-01-12T04:20:11.986Z,17.92
2019-01-12T04:22:41.080Z,15.90
2019-01-12T04:25:10.070Z,16.93
2019-01-12T04:27:39.221Z,20.88
2019-01-12T04:30:11.450Z,14.38
2019-01-12T04:32:40.402Z,18.92
2019-01-12T04:35:09.684Z,16.57
2019-01-12T04:37:38.887Z,19.92
2019-01-12T04:40:10.654Z,18.87
2019-01-12T04:42:39.715Z,20.65
2019-01-12T04:45:08.798Z,19.50
2019-01-12T04:47:38.070Z,14.20
2019-01-12T04:50:09.271Z,13.75
2019-01-12T04:52:38.226Z,11.55
2019-01-12T04:55:07.668Z,16.17
2019-01-12T04:57:36.755Z,17.48
2019-01-12T05:00:06.829Z,19.23
2019-01-12T05:02:35.987Z,13.58
2019-01-12T05:05:05.366Z,17.20
2019-01-12T05:07:34.098Z,7.25
2019-01-12T05:10:03.116Z,15.15
2019-01-12T05:12:32.292Z,15.83
2019-01-12T05:15:01.254Z,17.60
2019-01-12T05:17:30.176Z,12.20
2019-01-12T05:19:59.117Z,17.00
2019-01-12T05:22:27.996Z,15.83
2019-01-12T05:24:57.221Z,18.02
2019-01-12T05:27:26.196Z,20.40
2019-01-12T05:29:55.330Z,13.90
2019-01-12T05:32:24.310Z,13.00
2019-01-12T05:34:53.266Z,17.62
2019-01-12T05:37:22.403Z,21.02
2019-01-12T05:39:51.234Z,20.65
2019-01-12T05:42:20.160Z,16.15
2019-01-12T05:44:49.345Z,15.75
2019-01-12T05:47:18.274Z,13.32
2019-01-12T05:49:47.145Z,16.00
2019-01-12T05:52:16.123Z,18.23
2019-01-12T05:54:45.093Z,14.35
2019-01-12T05:57:14.049Z,16.40
2019-01-12T05:59:42.887Z,18.23
2019-01-12T06:02:11.834Z,20.62
2019-01-12T06:04:40.765Z,18.15
2019-01-12T06:07:09.617Z,17.07
2019-01-12T06:09:38.569Z,15.05
2019-01-12T06:12:07.736Z,16.57
2019-01-12T06:14:36.509Z,17.30
2019-01-12T06:17:05.854Z,18.35
2019-01-12T06:19:34.820Z,20.20
2019-01-12T06:22:04.344Z,18.80
2019-01-12T06:24:33.120Z,19.32
2019-01-12T06:27:02.118Z,19.87
2019-01-12T06:29:31.339Z,17.67
2019-01-12T06:32:00.330Z,14.87
2019-01-12T06:34:29.347Z,16.82
2019-01-12T06:36:58.195Z,17.95
2019-01-12T06:39:27.335Z,14.85
2019-01-12T06:41:56.362Z,18.42
2019-01-12T06:44:25.489Z,15.35
2019-01-12T06:46:54.488Z,12.93
2019-01-12T06:49:23.571Z,18.27
2019-01-12T06:51:52.405Z,16.62
2019-01-12T06:54:22.502Z,16.52
2019-01-12T06:56:51.283Z,15.63
2019-01-12T06:59:20.346Z,15.03
2019-01-12T07:01:49.273Z,16.02
2019-01-12T07:04:18.278Z,16.67
2019-01-12T07:06:47.031Z,16.10
2019-01-12T07:09:15.889Z,18.35
2019-01-12T07:11:44.843Z,17.90
2019-01-12T07:14:14.173Z,15.15
2019-01-12T07:16:42.927Z,14.43
2019-01-12T07:19:11.940Z,15.80
2019-01-12T07:21:40.954Z,18.67
2019-01-12T07:24:09.808Z,11.28
2019-01-12T07:26:38.894Z,19.45
2019-01-12T07:29:07.955Z,18.23
2019-01-12T07:31:36.719Z,15.35
2019-01-12T07:34:05.850Z,14.58
2019-01-12T07:36:35.262Z,19.57
2019-01-12T07:39:07.273Z,18.62
2019-01-12T07:41:36.053Z,17.00
2019-01-12T07:44:05.238Z,20.30
2019-01-12T07:46:34.311Z,21.70
2019-01-12T07:49:03.150Z,22.07
2019-01-12T07:51:32.196Z,20.23
2019-01-12T07:54:01.329Z,19.37
2019-01-12T07:56:31.680Z,19.42
2019-01-12T07:59:00.490Z,22.87
2019-01-12T08:01:29.470Z,20.00
2019-01-12T08:03:58.260Z,23.15
2019-01-12T08:06:27.147Z,19.42
2019-01-12T08:08:56.240Z,13.00
2019-01-12T08:11:25.211Z,18.35
2019-01-12T08:13:54.320Z,34.15
2019-01-12T08:16:23.322Z,21.77
2019-01-12T08:18:52.395Z,22.20
2019-01-12T08:21:21.659Z,20.27
2019-01-12T08:23:50.920Z,19.80
2019-01-12T08:26:20.013Z,21.15
2019-01-12T08:28:52.178Z,15.72
2019-01-12T08:31:21.375Z,20.70
2019-01-12T08:33:50.887Z,19.95
2019-01-12T08:36:19.990Z,28.90
2019-01-12T08:38:48.970Z,20.60
2019-01-12T08:41:18.387Z,18.07
2019-01-12T08:43:50.435Z,31.33
2019-01-12T08:46:19.473Z,30.43
2019-01-12T08:48:48.607Z,21.80
2019-01-12T08:51:18.854Z,18.02
2019-01-12T08:53:50.235Z,22.22
2019-01-12T08:56:19.287Z,17.12
2019-01-12T08:58:50.263Z,18.87
2019-01-12T09:01:18.847Z,18.30
2019-01-12T09:03:47.647Z,37.58
2019-01-12T09:06:16.606Z,35.88
2019-01-12T09:08:45.814Z,52.25
2019-01-12T09:11:15.085Z,30.97
2019-01-12T09:13:45.126Z,18.62
2019-01-12T09:16:14.370Z,16.40
2019-01-12T09:18:43.471Z,15.25
2019-01-12T09:21:12.614Z,15.35
2019-01-12T09:23:41.598Z,16.00
2019-01-12T09:26:10.469Z,23.02
2019-01-12T09:28:39.397Z,14.68
2019-01-12T09:31:08.186Z,20.95
2019-01-12T09:33:37.220Z,11.65
2019-01-12T09:36:06.227Z,13.88
2019-01-12T09:38:35.204Z,12.13
2019-01-12T09:41:04.516Z,12.00
2019-01-12T09:43:36.359Z,12.95
2019-01-12T09:46:05.378Z,12.00
2019-01-12T09:48:34.119Z,10.28
2019-01-12T09:51:03.008Z,11.20
2019-01-12T09:53:32.086Z,10.82
2019-01-12T09:56:01.067Z,11.88
2019-01-12T09:58:29.975Z,11.18
2019-01-12T10:00:58.721Z,10.90
2019-01-12T10:03:28.078Z,10.20
2019-01-12T10:05:57.191Z,12.70
2019-01-12T10:08:26.347Z,8.25
2019-01-12T10:10:55.174Z,7.53
2019-01-12T10:13:24.312Z,7.28
2019-01-12T10:15:53.383Z,5.72
2019-01-12T10:18:22.141Z,5.15
2019-01-12T10:20:51.198Z,6.10
2019-01-12T10:23:21.332Z,5.70
2019-01-12T10:25:52.323Z,5.33
2019-01-12T10:28:21.517Z,6.12
2019-01-12T10:30:50.539Z,5.90
2019-01-12T10:33:19.304Z,5.97
2019-01-12T10:35:49.658Z,5.65
2019-01-12T10:38:18.867Z,3.98
2019-01-12T10:40:48.219Z,6.33
2019-01-12T10:43:17.498Z,5.15
2019-01-12T10:45:46.715Z,7.05
2019-01-12T10:48:15.630Z,5.90
2019-01-12T10:50:44.715Z,6.55
2019-01-12T10:53:13.646Z,7.03
2019-01-12T10:55:42.696Z,6.83
2019-01-12T10:58:11.651Z,7.45
2019-01-12T11:00:41.270Z,12.55
2019-01-12T11:03:10.368Z,6.20
2019-01-12T11:05:39.275Z,7.75
2019-01-12T11:08:08.526Z,4.25
2019-01-12T11:10:39.902Z,6.92
2019-01-12T11:13:08.627Z,8.15
2019-01-12T11:15:37.738Z,5.90
2019-01-12T11:18:10.992Z,6.45
2019-01-12T11:20:42.066Z,6.58
2019-01-12T11:23:10.944Z,6.78
2019-01-12T11:25:43.043Z,6.78
2019-01-12T11:28:12.869Z,8.95
2019-01-12T11:30:44.684Z,8.73
2019-01-12T11:33:13.619Z,7.25
2019-01-12T11:35:44.369Z,9.23
2019-01-12T11:38:13.316Z,8.15
2019-01-12T11:40:46.193Z,9.50
2019-01-12T11:43:14.978Z,9.25
2019-01-12T11:45:50.828Z,7.60
2019-01-12T11:48:19.793Z,8.15
2019-01-12T11:50:48.545Z,6.95
2019-01-12T11:53:17.699Z,9.80
2019-01-12T11:55:46.732Z,9.83
2019-01-12T11:58:15.821Z,7.87
2019-01-12T12:00:44.800Z,10.50
2019-01-12T12:03:13.667Z,10.95
2019-01-12T12:05:51.187Z,8.98
2019-01-12T12:08:19.938Z,9.23
2019-01-12T12:10:48.740Z,10.18
2019-01-12T12:13:17.735Z,10.05
2019-01-12T12:15:46.529Z,10.08
2019-01-12T12:18:18.653Z,10.30
2019-01-12T12:20:47.674Z,10.55
2019-01-12T12:23:16.523Z,9.00
2019-01-12T12:25:45.895Z,9.65
2019-01-12T12:28:14.873Z,9.88
2019-01-12T12:30:43.854Z,12.50
2019-01-12T12:33:14.882Z,11.38
2019-01-12T12:35:45.477Z,11.63
2019-01-12T12:38:15.719Z,11.53
2019-01-12T12:40:46.940Z,10.63
2019-01-12T12:43:15.920Z,12.50
2019-01-12T12:45:44.839Z,14.00
2019-01-12T12:48:19.807Z,13.78
2019-01-12T12:50:55.901Z,14.50
2019-01-12T12:53:24.797Z,14.28
2019-01-12T12:55:55.908Z,12.93
2019-01-12T12:58:24.800Z,13.28
2019-01-12T13:00:54.143Z,12.78
2019-01-12T13:03:23.444Z,11.93
2019-01-12T13:05:52.823Z,12.63
2019-01-12T13:08:21.802Z,13.13
2019-01-12T13:10:53.477Z,16.40
2019-01-12T13:13:22.294Z,14.55
2019-01-12T13:15:51.433Z,14.47
2019-01-12T13:18:23.236Z,16.32
2019-01-12T13:20:55.274Z,18.55
2019-01-12T13:23:26.446Z,18.50
2019-01-12T13:25:55.367Z,17.67
2019-01-12T13:28:26.376Z,17.98
2019-01-12T13:30:55.494Z,19.57
2019-01-12T13:33:24.411Z,19.40
2019-01-12T13:35:53.273Z,19.70
2019-01-12T13:38:22.554Z,17.00
2019-01-12T13:40:51.759Z,18.25
2019-01-12T13:43:22.203Z,21.40
2019-01-12T13:45:51.319Z,20.88
2019-01-12T13:48:20.469Z,21.50
2019-01-12T13:50:49.606Z,19.15
2019-01-12T13:53:23.276Z,15.90
2019-01-12T13:55:52.090Z,12.45
2019-01-12T13:58:21.355Z,10.82
2019-01-12T14:00:50.965Z,13.45
2019-01-12T14:03:20.058Z,10.53
2019-01-12T14:05:49.115Z,15.08
2019-01-12T14:08:21.112Z,11.68
2019-01-12T14:10:49.843Z,12.18
2019-01-12T14:13:18.867Z,14.50
2019-01-12T14:15:47.859Z,11.57
2019-01-12T14:18:24.746Z,12.23
2019-01-12T14:20:53.548Z,15.55
2019-01-12T14:23:22.320Z,17.30
2019-01-12T14:25:51.277Z,13.53
2019-01-12T14:28:20.266Z,16.20
2019-01-12T14:30:49.096Z,17.32
2019-01-12T14:33:22.034Z,15.23
2019-01-12T14:35:51.055Z,16.62
2019-01-12T14:38:20.235Z,12.58
2019-01-12T14:40:50.857Z,11.93
2019-01-12T14:43:21.050Z,13.53
2019-01-12T14:45:49.797Z,13.30
2019-01-12T14:48:18.667Z,17.25
2019-01-12T14:50:47.707Z,14.23
2019-01-12T14:53:16.886Z,9.05
2019-01-12T14:55:46.079Z,9.45
2019-01-12T14:58:15.549Z,12.35
2019-01-12T15:00:44.675Z,12.65
2019-01-12T15:03:14.013Z,16.45
2019-01-12T15:05:42.764Z,13.62
2019-01-12T15:08:11.767Z,12.45
2019-01-12T15:10:40.998Z,14.38
2019-01-12T15:13:12.164Z,18.32
2019-01-12T15:15:41.391Z,12.13
2019-01-12T15:18:10.206Z,17.02
2019-01-12T15:20:39.243Z,16.60
2019-01-12T15:23:08.302Z,18.65
2019-01-12T15:25:37.192Z,16.37
2019-01-12T15:28:09.289Z,17.45
2019-01-12T15:30:39.343Z,17.90
2019-01-12T15:33:10.073Z,19.20
2019-01-12T15:35:40.848Z,20.80
2019-01-12T15:38:09.875Z,20.72
2019-01-12T15:40:39.472Z,18.07
2019-01-12T15:43:08.389Z,17.80
2019-01-12T15:45:37.187Z,18.87
2019-01-12T15:48:06.559Z,19.77
2019-01-12T15:50:37.903Z,19.10
2019-01-12T15:53:12.339Z,19.98
2019-01-12T15:55:41.459Z,17.95
2019-01-12T15:58:16.181Z,15.55
2019-01-12T16:00:41.791Z,15.95
2019-01-12T16:03:10.680Z,20.15
2019-01-12T16:05:39.615Z,18.45
2019-01-12T16:08:11.627Z,20.20
2019-01-12T16:10:40.374Z,20.00
2019-01-12T16:13:10.771Z,20.80
2019-01-12T16:15:39.629Z,21.57
2019-01-12T16:18:08.774Z,21.35
2019-01-12T16:20:39.306Z,21.80
2019-01-12T16:23:08.737Z,22.07
2019-01-12T16:25:38.936Z,20.37
2019-01-12T16:28:08.179Z,18.70
2019-01-12T16:30:37.276Z,21.10
2019-01-12T16:33:08.965Z,27.13
2019-01-12T16:35:38.043Z,19.35
2019-01-12T16:38:06.933Z,20.30
2019-01-12T16:40:35.783Z,16.97
2019-01-12T16:43:04.926Z,18.10
2019-01-12T16:45:33.950Z,20.77
2019-01-12T16:48:02.855Z,21.85
2019-01-12T16:50:31.896Z,20.80
2019-01-12T16:53:01.022Z,20.43
2019-01-12T16:55:29.891Z,16.97
2019-01-12T16:57:58.877Z,15.50
2019-01-12T17:00:29.652Z,16.48
2019-01-12T17:02:59.102Z,16.90
2019-01-12T17:05:28.113Z,12.98
2019-01-12T17:07:56.970Z,15.13
2019-01-12T17:10:26.008Z,11.83
2019-01-12T17:12:55.096Z,12.90
2019-01-12T17:15:24.465Z,15.30
2019-01-12T17:17:53.620Z,14.07
2019-01-12T17:20:24.768Z,11.50
2019-01-12T17:22:56.833Z,11.85
2019-01-12T17:25:26.834Z,10.88
2019-01-12T17:27:55.906Z,12.25
2019-01-12T17:30:25.054Z,9.70
2019-01-12T17:32:53.949Z,11.85
2019-01-12T17:35:22.958Z,10.85
2019-01-12T17:37:52.131Z,10.88
2019-01-12T17:40:21.049Z,7.20
2019-01-12T17:42:50.374Z,9.38
2019-01-12T17:45:21.214Z,10.10
2019-01-12T17:47:50.275Z,9.50
2019-01-12T17:50:20.735Z,8.48
2019-01-12T17:52:49.848Z,7.08
2019-01-12T17:55:20.630Z,7.53
2019-01-12T17:57:49.901Z,8.20
2019-01-12T18:00:27.751Z,8.80
2019-01-12T18:02:56.858Z,10.20
2019-01-12T18:05:27.443Z,11.03
2019-01-12T18:07:56.579Z,8.95
2019-01-12T18:10:25.608Z,7.78
2019-01-12T18:12:54.648Z,7.72
2019-01-12T18:15:23.571Z,6.75
2019-01-12T18:17:52.487Z,8.63
2019-01-12T18:20:21.542Z,6.83
2019-01-12T18:22:50.568Z,6.90
2019-01-12T18:25:19.618Z,7.75
2019-01-12T18:27:48.775Z,8.50
2019-01-12T18:30:19.322Z,6.00
2019-01-12T18:32:48.231Z,6.80
2019-01-12T18:35:17.438Z,7.53
2019-01-12T18:37:46.319Z,7.17
2019-01-12T18:40:16.378Z,6.03
2019-01-12T18:42:45.450Z,7.53
2019-01-12T18:45:16.082Z,6.03
2019-01-12T18:47:45.253Z,7.15
2019-01-12T18:50:19.065Z,6.72
2019-01-12T18:52:48.116Z,0.30
2019-01-12T18:55:17.156Z,0.40
2019-01-12T18:57:47.169Z,0.30
2019-01-12T19:00:21.210Z,0.40
2019-01-12T19:02:52.591Z,0.40
2019-01-12T19:05:21.804Z,0.30
2019-01-12T19:07:51.050Z,0.30
2019-01-12T19:10:20.216Z,0.30
2019-01-12T19:12:49.333Z,0.30
2019-01-12T19:15:23.843Z,0.30
2019-01-12T19:17:53.072Z,0.30
2019-01-12T19:20:22.084Z,0.40
2019-01-12T19:22:51.022Z,0.30
2019-01-12T19:25:23.121Z,0.30
2019-01-12T19:27:53.074Z,0.30
2019-01-12T19:30:23.232Z,0.30
2019-01-12T19:32:52.311Z,0.30
2019-01-12T19:35:21.440Z,0.30
2019-01-12T19:37:50.447Z,0.40
2019-01-12T19:40:24.029Z,0.40
2019-01-12T19:42:52.906Z,0.40
2019-01-12T19:45:21.963Z,0.30
2019-01-12T19:47:52.279Z,0.40
2019-01-12T19:50:26.097Z,0.30
2019-01-12T19:52:58.684Z,0.30
2019-01-12T19:55:27.658Z,0.30
2019-01-12T19:57:57.263Z,0.40
2019-01-12T20:00:39.359Z,0.30
2019-01-12T20:03:08.250Z,0.40
2019-01-12T20:05:38.716Z,0.40
2019-01-12T20:08:07.787Z,0.40
2019-01-12T20:10:36.732Z,0.30
2019-01-12T20:13:05.691Z,0.40
2019-01-12T20:15:34.665Z,0.40
2019-01-12T20:18:03.854Z,0.72
2019-01-12T20:20:32.695Z,0.30
2019-01-12T20:23:02.019Z,0.40
2019-01-12T20:25:31.866Z,0.30
2019-01-12T20:28:06.698Z,0.40
2019-01-12T20:30:48.412Z,0.35
2019-01-12T20:33:27.630Z,0.30
2019-01-12T20:36:38.865Z,0.40
2019-01-12T20:39:42.895Z,0.40
2019-01-12T20:42:45.094Z,0.30
2019-01-12T20:45:57.647Z,0.40
2019-01-12T20:48:58.308Z,0.30
2019-01-12T20:51:57.324Z,0.37
2019-01-12T20:55:12.927Z,0.40
2019-01-12T20:58:24.500Z,0.40
2019-01-12T21:01:44.348Z,0.40
2019-01-12T21:04:34.529Z,0.40
2019-01-12T21:07:33.566Z,0.30
2019-01-12T21:10:37.794Z,0.30
2019-01-12T21:13:50.404Z,0.30
2019-01-12T21:16:27.386Z,0.30
2019-01-12T21:18:56.600Z,0.40
2019-01-12T21:21:25.492Z,0.40
2019-01-12T21:23:54.603Z,0.40
2019-01-12T21:26:23.852Z,0.30
2019-01-12T21:28:52.862Z,0.35
2019-01-12T21:31:21.787Z,0.40
2019-01-12T21:33:50.961Z,0.40
2019-01-12T21:36:20.198Z,0.40
2019-01-12T21:38:48.950Z,0.30
2019-01-12T21:41:17.778Z,0.40
2019-01-12T21:43:46.615Z,0.30
2019-01-12T21:46:16.723Z,0.40
2019-01-12T21:48:45.749Z,0.30
2019-01-12T21:51:14.724Z,0.40
2019-01-12T21:53:43.697Z,0.40
2019-01-12T21:56:14.203Z,0.30
2019-01-12T21:58:43.252Z,0.40
2019-01-12T22:01:12.459Z,0.40
2019-01-12T22:03:41.604Z,0.30
2019-01-12T22:06:10.653Z,0.40
2019-01-12T22:08:39.420Z,0.30
2019-01-12T22:11:08.490Z,0.37
2019-01-12T22:13:37.452Z,0.40
2019-01-12T22:16:06.641Z,0.40
2019-01-12T22:18:35.760Z,0.30
2019-01-12T22:21:04.684Z,0.40
2019-01-12T22:23:33.602Z,0.40
2019-01-12T22:26:02.654Z,0.30
2019-01-12T22:28:31.593Z,0.30
2019-01-12T22:31:00.510Z,0.30
2019-01-12T22:33:29.435Z,0.30
2019-01-12T22:35:58.474Z,0.30
2019-01-12T22:38:27.387Z,0.30
2019-01-12T22:40:56.259Z,0.40
2019-01-12T22:43:25.547Z,0.40
2019-01-12T22:45:54.282Z,0.30
2019-01-12T22:48:26.134Z,0.40
2019-01-12T22:50:55.374Z,0.40
2019-01-12T22:53:24.500Z,0.40
2019-01-12T22:55:53.676Z,0.30
2019-01-12T22:58:22.665Z,0.30
2019-01-12T23:01:11.411Z,0.40
2019-01-12T23:03:46.816Z,0.30
2019-01-12T23:06:15.873Z,0.40
2019-01-12T23:08:44.845Z,0.40
2019-01-12T23:11:13.768Z,0.30
2019-01-12T23:13:42.542Z,0.40
2019-01-12T23:16:11.578Z,0.60
2019-01-12T23:18:40.675Z,0.30
2019-01-12T23:21:09.996Z,0.40
2019-01-12T23:23:38.860Z,0.35
2019-01-12T23:26:07.658Z,0.40
2019-01-12T23:28:36.883Z,0.40
2019-01-12T23:31:05.914Z,0.30
2019-01-12T23:33:35.140Z,0.40
2019-01-12T23:36:04.668Z,0.40
2019-01-12T23:38:33.760Z,0.40
2019-01-12T23:41:02.783Z,0.42
2019-01-12T23:43:32.015Z,0.40
2019-01-12T23:46:00.985Z,0.47
2019-01-12T23:48:32.382Z,0.30
2019-01-12T23:51:01.285Z,0.40
2019-01-12T23:53:30.380Z,0.37
2019-01-12T23:55:59.706Z,0.40
2019-01-12T23:58:28.654Z,0.30
